createdAt,value
2023-04-09T00:00:25.949Z,100.00
2023-04-09T00:02:55.955Z,100.00
2023-04-09T00:05:28.541Z,100.00
2023-04-09T00:07:58.455Z,100.00
2023-04-09T00:10:28.336Z,100.00
2023-04-09T00:12:58.161Z,100.00
2023-04-09T00:15:31.549Z,100.00
2023-04-09T00:18:02.010Z,100.00
2023-04-09T00:20:34.483Z,100.00
2023-04-09T00:23:04.356Z,100.00
2023-04-09T00:25:34.252Z,100.00
2023-04-09T00:28:04.094Z,100.00
2023-04-09T00:30:37.344Z,100.00
2023-04-09T00:33:07.227Z,100.00
2023-04-09T00:35:39.721Z,100.00
2023-04-09T00:38:09.682Z,100.00
2023-04-09T00:40:39.581Z,100.00
2023-04-09T00:43:09.397Z,100.00
2023-04-09T00:45:39.364Z,100.00
2023-04-09T00:48:09.956Z,100.00
2023-04-09T00:50:42.714Z,100.00
2023-04-09T00:53:14.469Z,100.00
2023-04-09T00:55:44.711Z,100.00
2023-04-09T00:58:14.608Z,100.00
2023-04-09T01:00:44.578Z,100.00
2023-04-09T01:03:14.639Z,100.00
2023-04-09T01:05:56.562Z,100.00
2023-04-09T01:08:36.344Z,100.00
2023-04-09T01:11:18.410Z,100.00
2023-04-09T01:13:55.599Z,100.00
2023-04-09T01:16:28.222Z,100.00
2023-04-09T01:19:02.728Z,100.00
2023-04-09T01:21:36.852Z,100.00
2023-04-09T01:24:21.414Z,100.00
2023-04-09T01:27:00.936Z,100.00
2023-04-09T01:29:35.931Z,100.00
2023-04-09T01:32:07.868Z,100.00
2023-04-09T01:34:44.389Z,100.00
2023-04-09T01:37:15.332Z,100.00
2023-04-09T01:39:45.774Z,100.00
2023-04-09T01:42:18.802Z,100.00
2023-04-09T01:44:51.738Z,100.00
2023-04-09T01:47:22.077Z,100.00
2023-04-09T01:49:52.338Z,100.00
2023-04-09T01:52:22.588Z,100.00
2023-04-09T01:54:52.471Z,100.00
2023-04-09T01:57:22.345Z,100.00
2023-04-09T01:59:55.029Z,100.00
2023-04-09T02:02:37.237Z,100.00
2023-04-09T02:05:10.679Z,100.00
2023-04-09T02:07:43.630Z,100.00
2023-04-09T02:10:17.598Z,100.00
2023-04-09T02:12:54.083Z,100.00
2023-04-09T02:15:27.889Z,100.00
2023-04-09T02:17:57.792Z,100.00
2023-04-09T02:20:27.760Z,100.00
2023-04-09T02:22:57.623Z,100.00
2023-04-09T02:25:28.353Z,100.00
2023-04-09T02:27:59.165Z,100.00
2023-04-09T02:30:31.698Z,100.00
2023-04-09T02:33:01.535Z,100.00
2023-04-09T02:35:31.440Z,100.00
2023-04-09T02:38:01.333Z,100.00
2023-04-09T02:40:31.398Z,100.00
2023-04-09T02:43:01.344Z,100.00
2023-04-09T02:45:33.981Z,100.00
2023-04-09T02:48:03.853Z,100.00
2023-04-09T02:50:33.773Z,100.00
2023-04-09T02:53:03.782Z,100.00
2023-04-09T02:55:34.082Z,100.00
2023-04-09T02:58:04.736Z,100.00
2023-04-09T03:00:37.243Z,100.00
2023-04-09T03:03:07.371Z,100.00
2023-04-09T03:05:42.749Z,100.00
2023-04-09T03:08:12.586Z,100.00
2023-04-09T03:10:42.418Z,100.00
2023-04-09T03:13:12.283Z,100.00
2023-04-09T03:15:47.758Z,100.00
2023-04-09T03:18:17.651Z,100.00
2023-04-09T03:20:47.573Z,100.00
2023-04-09T03:23:17.384Z,100.00
2023-04-09T03:25:47.432Z,100.00
2023-04-09T03:28:17.294Z,100.00
2023-04-09T03:30:49.723Z,100.00
2023-04-09T03:33:19.822Z,100.00
2023-04-09T03:35:49.727Z,100.00
2023-04-09T03:38:19.819Z,100.00
2023-04-09T03:40:49.662Z,100.00
2023-04-09T03:43:19.451Z,100.00
2023-04-09T03:45:51.875Z,100.00
2023-04-09T03:48:21.717Z,100.00
2023-04-09T03:50:51.946Z,100.00
2023-04-09T03:53:21.768Z,100.00
2023-04-09T03:55:51.621Z,100.00
2023-04-09T03:58:21.484Z,100.00
2023-04-09T04:00:53.870Z,100.00
2023-04-09T04:03:23.817Z,100.00
2023-04-09T04:05:54.615Z,100.00
2023-04-09T04:08:24.555Z,100.00
2023-04-09T04:10:54.379Z,100.00
2023-04-09T04:13:24.304Z,100.00
2023-04-09T04:15:56.837Z,100.00
2023-04-09T04:18:28.199Z,100.00
2023-04-09T04:20:58.011Z,100.00
2023-04-09T04:23:27.803Z,100.00
2023-04-09T04:25:58.369Z,100.00
2023-04-09T04:28:28.987Z,100.00
2023-04-09T04:31:01.429Z,100.00
2023-04-09T04:33:31.352Z,100.00
2023-04-09T04:36:07.791Z,100.00
2023-04-09T04:38:38.180Z,100.00
2023-04-09T04:41:08.759Z,100.00
2023-04-09T04:43:38.584Z,100.00
2023-04-09T04:46:11.202Z,100.00
2023-04-09T04:48:41.081Z,100.00
2023-04-09T04:51:10.950Z,100.00
2023-04-09T04:53:40.844Z,100.00
2023-04-09T04:56:16.203Z,100.00
2023-04-09T04:58:47.533Z,100.00
2023-04-09T05:01:20.062Z,100.00
2023-04-09T05:03:51.692Z,100.00
2023-04-09T05:06:21.756Z,100.00
2023-04-09T05:08:52.053Z,100.00
2023-04-09T05:11:22.137Z,100.00
2023-04-09T05:13:51.984Z,100.00
2023-04-09T05:16:27.347Z,100.00
2023-04-09T05:18:57.247Z,100.00
2023-04-09T05:21:27.806Z,100.00
2023-04-09T05:23:57.656Z,100.00
2023-04-09T05:26:27.588Z,100.00
2023-04-09T05:28:57.498Z,100.00
2023-04-09T05:31:30.879Z,100.00
2023-04-09T05:34:00.711Z,100.00
2023-04-09T05:36:30.575Z,100.00
2023-04-09T05:39:00.594Z,100.00
2023-04-09T05:41:30.554Z,100.00
2023-04-09T05:44:00.992Z,100.00
2023-04-09T05:46:33.710Z,100.00
2023-04-09T05:49:03.603Z,100.00
2023-04-09T05:51:33.678Z,100.00
2023-04-09T05:54:04.363Z,100.00
2023-04-09T05:56:34.241Z,100.00
2023-04-09T05:59:04.145Z,100.00
2023-04-09T06:01:36.882Z,100.00
2023-04-09T06:04:08.249Z,100.00
2023-04-09T06:06:40.327Z,100.00
2023-04-09T06:09:10.361Z,100.00
2023-04-09T06:11:40.155Z,100.00
2023-04-09T06:14:12.446Z,100.00
2023-04-09T06:16:44.932Z,100.00
2023-04-09T06:19:15.347Z,100.00
2023-04-09T06:21:45.204Z,100.00
2023-04-09T06:24:15.103Z,100.00
2023-04-09T06:26:44.978Z,100.00
2023-04-09T06:29:16.137Z,100.00
2023-04-09T06:31:48.760Z,100.00
2023-04-09T06:34:18.963Z,100.00
2023-04-09T06:37:20.066Z,100.00
2023-04-09T06:40:01.044Z,100.00
2023-04-09T06:42:42.591Z,100.00
2023-04-09T06:45:13.134Z,100.00
2023-04-09T06:47:45.588Z,100.00
2023-04-09T06:50:15.649Z,100.00
2023-04-09T06:52:45.760Z,100.00
2023-04-09T06:55:15.725Z,100.00
2023-04-09T06:57:45.520Z,100.00
2023-04-09T07:00:16.724Z,100.00
2023-04-09T07:02:49.548Z,100.00
2023-04-09T07:05:19.942Z,100.00
2023-04-09T07:07:49.755Z,100.00
2023-04-09T07:10:19.687Z,100.00
2023-04-09T07:12:51.102Z,100.00
2023-04-09T07:15:20.992Z,100.00
2023-04-09T07:17:53.597Z,100.00
2023-04-09T07:20:23.657Z,100.00
2023-04-09T07:22:53.472Z,100.00
2023-04-09T07:25:24.162Z,100.00
2023-04-09T07:27:54.023Z,100.00
2023-04-09T07:30:24.168Z,100.00
2023-04-09T07:32:56.720Z,100.00
2023-04-09T07:35:28.367Z,100.00
2023-04-09T07:38:00.553Z,100.00
2023-04-09T07:40:30.511Z,100.00
2023-04-09T07:43:00.366Z,100.00
2023-04-09T07:45:30.217Z,100.00
2023-04-09T07:48:06.625Z,100.00
2023-04-09T07:50:36.624Z,100.00
2023-04-09T07:53:06.471Z,100.00
2023-04-09T07:55:36.304Z,100.00
2023-04-09T07:58:07.537Z,100.00
2023-04-09T08:00:37.413Z,100.00
2023-04-09T08:03:10.126Z,100.00
2023-04-09T08:05:40.971Z,100.00
2023-04-09T08:08:10.798Z,100.00
2023-04-09T08:10:40.649Z,100.00
2023-04-09T08:13:11.970Z,100.00
2023-04-09T08:15:41.957Z,100.00
2023-04-09T08:18:14.470Z,100.00
2023-04-09T08:20:45.727Z,100.00
2023-04-09T08:23:15.649Z,100.00
2023-04-09T08:25:45.549Z,100.00
2023-04-09T08:28:15.458Z,100.00
2023-04-09T08:30:45.326Z,100.00
2023-04-09T08:33:17.866Z,100.00
2023-04-09T08:35:47.660Z,100.00
2023-04-09T08:38:18.033Z,100.00
2023-04-09T08:40:48.230Z,100.00
2023-04-09T08:43:19.393Z,100.00
2023-04-09T08:45:49.211Z,100.00
2023-04-09T08:48:22.769Z,100.00
2023-04-09T08:50:55.143Z,100.00
2023-04-09T08:53:25.933Z,100.00
2023-04-09T08:55:55.915Z,100.00
2023-04-09T08:58:25.766Z,100.00
2023-04-09T09:00:56.057Z,100.00
2023-04-09T09:03:28.655Z,100.00
2023-04-09T09:05:59.178Z,100.00
2023-04-09T09:08:30.949Z,100.00
2023-04-09T09:11:00.839Z,100.00
2023-04-09T09:13:31.324Z,100.00
2023-04-09T09:16:16.891Z,100.00
2023-04-09T09:18:49.957Z,100.00
2023-04-09T09:21:21.432Z,100.00
2023-04-09T09:23:51.475Z,100.00
2023-04-09T09:26:23.303Z,100.00
2023-04-09T09:28:54.011Z,100.00
2023-04-09T09:31:26.030Z,100.00
2023-04-09T09:34:01.347Z,100.00
2023-04-09T09:36:35.326Z,99.99
2023-04-09T09:39:12.632Z,99.89
2023-04-09T09:41:43.078Z,99.66
2023-04-09T09:44:14.386Z,99.60
2023-04-09T09:46:44.640Z,99.54
2023-04-09T09:49:17.120Z,99.42
2023-04-09T09:51:47.290Z,99.30
2023-04-09T09:54:22.038Z,99.29
2023-04-09T09:56:57.812Z,99.23
2023-04-09T09:59:33.389Z,98.93
2023-04-09T10:02:08.317Z,99.00
2023-04-09T10:04:41.915Z,98.88
2023-04-09T10:07:13.930Z,98.79
2023-04-09T10:09:45.650Z,98.78
2023-04-09T10:12:15.720Z,98.63
2023-04-09T10:14:46.666Z,98.59
2023-04-09T10:17:20.285Z,98.44
2023-04-09T10:19:59.901Z,98.56
2023-04-09T10:22:35.129Z,98.30
2023-04-09T10:25:06.720Z,98.15
2023-04-09T10:27:36.664Z,97.97
2023-04-09T10:30:10.576Z,97.84
2023-04-09T10:32:40.865Z,97.58
2023-04-09T10:35:13.537Z,97.50
2023-04-09T10:37:54.803Z,97.36
2023-04-09T10:40:24.792Z,97.37
2023-04-09T10:42:55.758Z,97.17
2023-04-09T10:45:26.560Z,97.16
2023-04-09T10:47:56.733Z,96.99
2023-04-09T10:50:34.712Z,97.09
2023-04-09T10:53:07.289Z,96.92
2023-04-09T10:55:39.374Z,97.02
2023-04-09T10:58:12.720Z,96.78
2023-04-09T11:00:44.825Z,96.56
2023-04-09T11:03:24.188Z,96.44
2023-04-09T11:06:00.666Z,96.19
2023-04-09T11:08:35.243Z,95.84
2023-04-09T11:11:06.179Z,95.64
2023-04-09T11:13:36.371Z,95.28
2023-04-09T11:16:07.416Z,95.16
2023-04-09T11:18:38.011Z,94.89
2023-04-09T11:21:11.310Z,94.76
2023-04-09T11:23:41.266Z,94.57
2023-04-09T11:26:13.805Z,94.37
2023-04-09T11:28:46.237Z,94.16
2023-04-09T11:31:16.929Z,93.86
2023-04-09T11:33:50.701Z,93.61
2023-04-09T11:36:24.630Z,93.42
2023-04-09T11:38:57.862Z,93.15
2023-04-09T11:41:37.029Z,92.92
2023-04-09T11:44:07.880Z,92.54
2023-04-09T11:46:38.659Z,92.25
2023-04-09T11:49:08.651Z,91.95
2023-04-09T11:51:41.226Z,91.74
2023-04-09T11:54:11.467Z,91.39
2023-04-09T11:56:41.325Z,91.00
2023-04-09T11:59:11.192Z,90.71
2023-04-09T12:01:41.077Z,90.53
2023-04-09T12:04:13.734Z,90.25
2023-04-09T12:06:46.441Z,90.22
2023-04-09T12:09:16.515Z,90.14
2023-04-09T12:11:47.301Z,90.20
2023-04-09T12:14:17.966Z,89.98
2023-04-09T12:16:48.285Z,89.92
2023-04-09T12:19:19.506Z,89.72
2023-04-09T12:21:53.424Z,89.56
2023-04-09T12:24:25.999Z,89.42
2023-04-09T12:26:57.562Z,89.25
2023-04-09T12:29:27.390Z,88.91
2023-04-09T12:31:57.254Z,88.66
2023-04-09T12:34:27.540Z,88.38
2023-04-09T12:37:01.496Z,88.07
2023-04-09T12:39:35.389Z,87.97
2023-04-09T12:42:05.197Z,87.73
2023-04-09T12:44:35.376Z,87.44
2023-04-09T12:47:05.300Z,87.23
2023-04-09T12:49:35.116Z,86.88
2023-04-09T12:52:07.689Z,86.65
2023-04-09T12:54:37.697Z,86.48
2023-04-09T12:57:07.486Z,86.25
2023-04-09T12:59:37.339Z,86.07
2023-04-09T13:02:08.172Z,85.93
2023-04-09T13:04:38.317Z,85.55
2023-04-09T13:07:15.286Z,85.32
2023-04-09T13:09:45.187Z,85.13
2023-04-09T13:12:16.262Z,84.99
2023-04-09T13:14:47.576Z,84.67
2023-04-09T13:17:17.541Z,84.37
2023-04-09T13:19:47.451Z,84.00
2023-04-09T13:22:19.921Z,83.75
2023-04-09T13:24:49.822Z,83.37
2023-04-09T13:27:20.115Z,83.15
2023-04-09T13:29:49.955Z,83.08
2023-04-09T13:32:21.283Z,83.04
2023-04-09T13:34:51.420Z,82.70
2023-04-09T13:37:28.504Z,82.77
2023-04-09T13:39:58.697Z,82.60
2023-04-09T13:42:28.788Z,82.23
2023-04-09T13:45:00.512Z,82.03
2023-04-09T13:47:30.405Z,81.84
2023-04-09T13:50:00.356Z,81.60
2023-04-09T13:52:32.804Z,81.32
2023-04-09T13:55:04.026Z,81.03
2023-04-09T13:57:33.964Z,80.60
2023-04-09T14:00:05.654Z,80.23
2023-04-09T14:02:35.622Z,80.07
2023-04-09T14:05:05.747Z,79.82
2023-04-09T14:07:38.196Z,79.62
2023-04-09T14:10:09.264Z,79.59
2023-04-09T14:12:39.132Z,79.23
2023-04-09T14:15:10.687Z,79.11
2023-04-09T14:17:40.654Z,78.83
2023-04-09T14:20:11.832Z,78.94
2023-04-09T14:22:49.286Z,78.83
2023-04-09T14:25:19.443Z,78.77
2023-04-09T14:27:49.347Z,78.80
2023-04-09T14:30:19.339Z,78.56
2023-04-09T14:32:49.306Z,78.34
2023-04-09T14:35:19.292Z,78.12
2023-04-09T14:37:55.340Z,78.14
2023-04-09T14:40:25.229Z,77.96
2023-04-09T14:42:55.206Z,77.66
2023-04-09T14:45:25.249Z,77.55
2023-04-09T14:47:55.308Z,77.30
2023-04-09T14:50:25.191Z,77.33
2023-04-09T14:52:57.646Z,77.10
2023-04-09T14:55:27.460Z,77.04
2023-04-09T14:57:59.853Z,77.04
2023-04-09T15:00:29.752Z,76.98
2023-04-09T15:03:02.036Z,76.78
2023-04-09T15:05:32.149Z,76.81
2023-04-09T15:08:04.603Z,76.51
2023-04-09T15:10:34.933Z,76.48
2023-04-09T15:13:04.823Z,76.68
2023-04-09T15:15:41.286Z,76.45
2023-04-09T15:18:11.142Z,76.19
2023-04-09T15:20:43.645Z,76.20
2023-04-09T15:23:16.557Z,75.99
2023-04-09T15:25:47.015Z,75.77
2023-04-09T15:28:16.935Z,75.51
2023-04-09T15:30:46.729Z,75.61
2023-04-09T15:33:16.649Z,75.42
2023-04-09T15:35:50.303Z,75.33
2023-04-09T15:38:26.654Z,75.09
2023-04-09T15:40:58.391Z,75.17
2023-04-09T15:43:28.314Z,75.07
2023-04-09T15:46:03.501Z,75.16
2023-04-09T15:48:33.530Z,75.04
2023-04-09T15:51:18.098Z,75.11
2023-04-09T15:53:50.547Z,75.04
2023-04-09T15:56:20.522Z,74.99
2023-04-09T15:58:50.376Z,74.72
2023-04-09T16:01:21.056Z,74.70
2023-04-09T16:03:52.493Z,74.40
2023-04-09T16:06:23.501Z,74.21
2023-04-09T16:08:56.763Z,74.10
2023-04-09T16:11:29.128Z,74.02
2023-04-09T16:13:59.220Z,74.04
2023-04-09T16:16:29.188Z,73.86
2023-04-09T16:19:00.552Z,73.92
2023-04-09T16:21:30.620Z,73.71
2023-04-09T16:24:04.067Z,73.68
2023-04-09T16:26:34.023Z,73.73
2023-04-09T16:29:04.602Z,73.64
2023-04-09T16:31:34.551Z,73.67
2023-04-09T16:34:04.479Z,73.57
2023-04-09T16:36:37.252Z,73.42
2023-04-09T16:39:21.564Z,73.50
2023-04-09T16:41:52.264Z,73.50
2023-04-09T16:44:22.119Z,73.65
2023-04-09T16:46:52.215Z,73.61
2023-04-09T16:49:22.055Z,73.61
2023-04-09T16:51:53.343Z,73.55
2023-04-09T16:54:25.828Z,73.46
2023-04-09T16:56:56.877Z,73.53
2023-04-09T16:59:26.742Z,73.43
2023-04-09T17:01:56.837Z,73.50
2023-04-09T17:04:27.556Z,73.75
2023-04-09T17:06:57.755Z,73.93
2023-04-09T17:09:31.677Z,74.02
2023-04-09T17:12:01.547Z,74.29
2023-04-09T17:14:33.921Z,74.31
2023-04-09T17:17:03.884Z,74.58
2023-04-09T17:19:47.644Z,74.90
2023-04-09T17:22:26.252Z,75.15
2023-04-09T17:24:58.777Z,75.22
2023-04-09T17:27:28.873Z,75.63
2023-04-09T17:29:58.972Z,75.75
2023-04-09T17:32:29.004Z,75.94
2023-04-09T17:35:03.852Z,76.03
2023-04-09T17:37:36.194Z,76.10
2023-04-09T17:40:10.263Z,76.38
2023-04-09T17:42:54.709Z,76.43
2023-04-09T17:45:24.725Z,76.72
2023-04-09T17:47:55.458Z,76.91
2023-04-09T17:50:27.781Z,77.07
2023-04-09T17:52:57.850Z,77.13
2023-04-09T17:55:30.753Z,77.30
2023-04-09T17:58:00.590Z,77.53
2023-04-09T18:00:33.136Z,77.66
2023-04-09T18:03:03.279Z,77.67
2023-04-09T18:05:33.586Z,77.74
2023-04-09T18:08:04.330Z,77.90
2023-04-09T18:10:43.333Z,78.15
2023-04-09T18:13:13.261Z,78.10
2023-04-09T18:15:43.485Z,78.10
2023-04-09T18:18:13.328Z,78.32
2023-04-09T18:20:45.150Z,78.30
2023-04-09T18:23:14.986Z,78.36
2023-04-09T18:25:47.554Z,78.54
2023-04-09T18:28:17.835Z,78.59
2023-04-09T18:30:47.683Z,78.71
2023-04-09T18:33:17.561Z,78.74
2023-04-09T18:35:47.464Z,78.86
2023-04-09T18:38:18.132Z,78.94
2023-04-09T18:40:50.581Z,79.13
2023-04-09T18:43:20.595Z,79.11
2023-04-09T18:45:50.420Z,79.25
2023-04-09T18:48:20.932Z,79.27
2023-04-09T18:50:50.859Z,79.40
2023-04-09T18:53:20.720Z,79.56
2023-04-09T18:55:53.210Z,79.64
2023-04-09T18:58:23.092Z,79.72
2023-04-09T19:00:54.767Z,79.71
2023-04-09T19:03:34.576Z,79.77
2023-04-09T19:06:04.674Z,79.88
2023-04-09T19:08:38.430Z,80.17
2023-04-09T19:11:11.261Z,80.01
2023-04-09T19:13:42.066Z,80.24
2023-04-09T19:16:12.571Z,80.23
2023-04-09T19:18:42.450Z,80.39
2023-04-09T19:21:12.355Z,80.50
2023-04-09T19:23:42.320Z,80.66
2023-04-09T19:26:15.792Z,80.65
2023-04-09T19:28:45.770Z,80.89
2023-04-09T19:31:17.202Z,80.88
2023-04-09T19:33:47.183Z,81.03
2023-04-09T19:36:17.083Z,81.03
2023-04-09T19:38:47.027Z,81.16
2023-04-09T19:41:19.671Z,81.24
2023-04-09T19:43:49.632Z,81.44
2023-04-09T19:46:19.513Z,81.52
2023-04-09T19:48:53.617Z,81.52
2023-04-09T19:51:23.746Z,81.62
2023-04-09T19:53:53.686Z,81.78
2023-04-09T19:56:26.183Z,81.81
2023-04-09T19:58:56.297Z,81.81
2023-04-09T20:01:26.452Z,82.06
2023-04-09T20:03:56.467Z,82.08
2023-04-09T20:06:27.344Z,82.13
2023-04-09T20:08:59.627Z,82.22
2023-04-09T20:11:32.187Z,82.26
2023-04-09T20:14:02.060Z,82.28
2023-04-09T20:16:32.363Z,82.40
2023-04-09T20:19:02.222Z,82.60
2023-04-09T20:21:32.049Z,82.62
2023-04-09T20:24:05.066Z,82.50
2023-04-09T20:26:37.466Z,82.75
2023-04-09T20:29:12.028Z,82.76
2023-04-09T20:31:42.581Z,82.85
2023-04-09T20:34:12.453Z,82.89
2023-04-09T20:36:44.094Z,83.03
2023-04-09T20:39:14.291Z,83.08
2023-04-09T20:41:46.751Z,83.10
2023-04-09T20:44:16.589Z,83.06
2023-04-09T20:46:46.370Z,83.29
2023-04-09T20:49:16.152Z,83.27
2023-04-09T20:51:46.508Z,83.43
2023-04-09T20:54:18.167Z,83.45
2023-04-09T20:56:51.506Z,83.52
2023-04-09T20:59:21.926Z,83.64
2023-04-09T21:01:51.858Z,83.67
2023-04-09T21:04:22.696Z,83.75
2023-04-09T21:06:52.664Z,83.78
2023-04-09T21:09:22.583Z,83.81
2023-04-09T21:11:55.114Z,83.92
2023-04-09T21:14:27.986Z,84.03
2023-04-09T21:16:57.867Z,83.98
2023-04-09T21:19:27.751Z,84.14
2023-04-09T21:21:57.715Z,84.10
2023-04-09T21:24:28.142Z,84.24
2023-04-09T21:27:02.607Z,84.33
2023-04-09T21:29:32.440Z,84.46
2023-04-09T21:32:02.555Z,84.41
2023-04-09T21:34:32.360Z,84.41
2023-04-09T21:37:02.235Z,84.57
2023-04-09T21:39:32.290Z,84.51
2023-04-09T21:42:06.006Z,84.68
2023-04-09T21:44:36.924Z,84.86
2023-04-09T21:47:09.129Z,84.84
2023-04-09T21:49:40.840Z,84.93
2023-04-09T21:52:15.040Z,84.89
2023-04-09T21:54:45.355Z,84.97
2023-04-09T21:57:18.674Z,85.08
2023-04-09T21:59:48.478Z,85.14
2023-04-09T22:02:18.488Z,85.25
2023-04-09T22:04:48.460Z,85.27
2023-04-09T22:07:18.415Z,85.34
2023-04-09T22:09:48.250Z,85.38
2023-04-09T22:12:20.638Z,85.41
2023-04-09T22:14:50.511Z,85.48
2023-04-09T22:17:20.350Z,85.48
2023-04-09T22:19:51.274Z,85.64
2023-04-09T22:22:21.207Z,85.55
2023-04-09T22:24:51.008Z,85.77
2023-04-09T22:27:23.434Z,85.83
2023-04-09T22:29:53.325Z,85.80
2023-04-09T22:32:23.177Z,85.80
2023-04-09T22:34:53.162Z,85.93
2023-04-09T22:37:27.999Z,85.97
2023-04-09T22:39:58.071Z,85.96
2023-04-09T22:42:30.525Z,86.20
2023-04-09T22:45:00.347Z,86.13
2023-04-09T22:47:30.598Z,86.27
2023-04-09T22:50:00.426Z,86.29
2023-04-09T22:52:30.240Z,86.39
2023-04-09T22:55:00.153Z,86.49
2023-04-09T22:57:32.863Z,86.52
2023-04-09T23:00:03.284Z,86.66
2023-04-09T23:02:33.243Z,86.77
2023-04-09T23:05:03.253Z,86.83
2023-04-09T23:07:33.112Z,87.00
2023-04-09T23:10:03.043Z,87.06
2023-04-09T23:12:36.088Z,87.16
2023-04-09T23:15:06.045Z,87.23
2023-04-09T23:17:39.991Z,87.31
2023-04-09T23:20:11.686Z,87.39
2023-04-09T23:22:41.508Z,87.61
2023-04-09T23:25:12.300Z,87.67
2023-04-09T23:27:44.987Z,87.78
2023-04-09T23:30:17.230Z,87.90
2023-04-09T23:32:47.878Z,88.04
2023-04-09T23:35:18.426Z,88.14
2023-04-09T23:37:53.398Z,88.22
2023-04-09T23:40:23.310Z,88.45
2023-04-09T23:42:56.004Z,88.53
2023-04-09T23:45:26.386Z,88.58
2023-04-09T23:47:58.242Z,88.72
2023-04-09T23:50:28.898Z,88.84
2023-04-09T23:53:03.586Z,88.90
2023-04-09T23:55:33.638Z,88.95
2023-04-09T23:58:06.124Z,89.08
